Owasa, Iowa
Current Conditions -  °F | °C
As of 2:35 AM on Thursday 27 Nov 2014 (Local Time) from KIFA Reporting Station
Overcast Overcast  
Wind Chill: -5°   Ceiling: 2200
Heat Index: 12°   Visibility: 10mi
Dew Point:   Wind: 18mph
Humidity: 83%   Direction: 310°NW
Pressure: 30.42"   Gusts: NA
Location:  42.4829°N, 93.2802°W
Report Text: KIFA 270835Z AUTO 31016KT 10SM OVC022 M11/M13 A3042 RMK AO2 T11101134
Loading
Personal Weather Stations






























Interactive Weather Map New forecast layout! Learn more

10-Day Weather Forecast

Advertisements
Track Severe Weather on mobile